createdAt,value
2023-02-09T00:01:02.257Z,96.80
2023-02-09T00:03:28.960Z,96.90
2023-02-09T00:05:55.666Z,97.00
2023-02-09T00:08:22.565Z,97.00
2023-02-09T00:10:49.244Z,96.90
2023-02-09T00:13:15.890Z,96.70
2023-02-09T00:15:42.528Z,96.80
2023-02-09T00:18:09.207Z,96.80
2023-02-09T00:20:35.886Z,96.90
2023-02-09T00:23:02.540Z,96.80
2023-02-09T00:25:29.178Z,96.80
2023-02-09T00:27:55.869Z,96.70
2023-02-09T00:30:22.542Z,96.60
2023-02-09T00:32:49.225Z,96.50
2023-02-09T00:35:15.894Z,96.60
2023-02-09T00:37:42.554Z,97.00
2023-02-09T00:40:09.262Z,97.50
2023-02-09T00:42:35.906Z,97.50
2023-02-09T00:45:02.547Z,97.30
2023-02-09T00:47:29.190Z,97.20
2023-02-09T00:49:55.830Z,97.10
2023-02-09T00:52:22.494Z,97.10
2023-02-09T00:54:49.122Z,96.90
2023-02-09T00:57:15.745Z,96.80
2023-02-09T00:59:42.411Z,96.50
2023-02-09T01:02:09.131Z,96.80
2023-02-09T01:04:35.749Z,97.30
2023-02-09T01:07:02.392Z,97.30
2023-02-09T01:09:29.054Z,97.10
2023-02-09T01:11:55.727Z,97.40
2023-02-09T01:14:22.384Z,97.40
2023-02-09T01:16:49.083Z,97.40
2023-02-09T01:19:15.787Z,97.20
2023-02-09T01:21:42.448Z,97.50
2023-02-09T01:24:09.077Z,97.50
2023-02-09T01:26:35.789Z,98.60
2023-02-09T01:29:02.501Z,98.30
2023-02-09T01:31:29.200Z,98.00
2023-02-09T01:33:55.987Z,97.70
2023-02-09T01:36:22.675Z,97.40
2023-02-09T01:38:49.329Z,97.30
2023-02-09T01:41:16.075Z,97.20
2023-02-09T01:43:42.774Z,97.60
2023-02-09T01:46:09.458Z,97.80
2023-02-09T01:48:36.108Z,97.60
2023-02-09T01:51:02.781Z,97.50
2023-02-09T01:53:29.426Z,97.50
2023-02-09T01:55:56.115Z,97.60
2023-02-09T01:58:22.747Z,97.70
2023-02-09T02:00:49.470Z,97.80
2023-02-09T02:03:16.104Z,97.60
2023-02-09T02:05:42.750Z,97.70
2023-02-09T02:08:09.564Z,97.70
2023-02-09T02:10:36.220Z,97.70
2023-02-09T02:13:02.855Z,97.90
2023-02-09T02:15:29.463Z,97.20
2023-02-09T02:17:56.107Z,98.00
2023-02-09T02:20:22.746Z,98.70
2023-02-09T02:22:49.431Z,98.50
2023-02-09T02:25:16.062Z,98.30
2023-02-09T02:27:42.823Z,98.20
2023-02-09T02:30:09.547Z,98.00
2023-02-09T02:32:36.226Z,98.10
2023-02-09T02:35:02.913Z,98.20
2023-02-09T02:37:29.639Z,98.10
2023-02-09T02:39:56.308Z,98.10
2023-02-09T02:42:22.914Z,98.10
2023-02-09T02:44:49.556Z,98.10
2023-02-09T02:47:16.218Z,98.30
2023-02-09T02:49:42.821Z,98.20
2023-02-09T02:52:09.547Z,98.10
2023-02-09T02:54:36.229Z,98.10
2023-02-09T02:57:02.927Z,97.90
2023-02-09T02:59:29.577Z,98.10
2023-02-09T03:01:56.334Z,98.20
2023-02-09T03:04:23.032Z,98.30
2023-02-09T03:06:49.636Z,98.90
2023-02-09T03:09:16.301Z,98.30
2023-02-09T03:11:42.925Z,98.30
2023-02-09T03:14:09.568Z,98.20
2023-02-09T03:16:36.174Z,98.00
2023-02-09T03:19:05.401Z,98.30
2023-02-09T03:21:32.095Z,98.50
2023-02-09T03:23:58.779Z,98.50
2023-02-09T03:26:25.459Z,98.40
2023-02-09T03:28:52.070Z,98.70
2023-02-09T03:31:18.818Z,98.70
2023-02-09T03:33:45.520Z,98.60
2023-02-09T03:36:12.145Z,98.80
2023-02-09T03:38:38.845Z,98.70
2023-02-09T03:41:07.748Z,98.20
2023-02-09T03:43:34.571Z,99.50
2023-02-09T03:46:01.317Z,98.70
2023-02-09T03:48:27.932Z,99.30
2023-02-09T03:50:54.631Z,99.80
2023-02-09T03:53:21.261Z,99.40
2023-02-09T03:55:47.922Z,99.40
2023-02-09T03:58:14.610Z,99.60
2023-02-09T04:00:41.583Z,99.30
2023-02-09T04:03:08.200Z,99.10
2023-02-09T04:05:35.383Z,99.00
2023-02-09T04:08:02.265Z,98.60
2023-02-09T04:10:28.935Z,99.00
2023-02-09T04:12:56.018Z,98.70
2023-02-09T04:15:22.841Z,99.10
2023-02-09T04:17:50.833Z,98.40
2023-02-09T04:20:17.613Z,99.10
2023-02-09T04:22:44.293Z,98.90
2023-02-09T04:25:10.973Z,99.40
2023-02-09T04:27:37.669Z,98.70
2023-02-09T04:30:04.276Z,98.50
2023-02-09T04:32:30.911Z,98.50
2023-02-09T04:34:57.541Z,99.40
2023-02-09T04:37:24.243Z,99.30
2023-02-09T04:39:50.892Z,99.40
2023-02-09T04:42:17.529Z,99.40
2023-02-09T04:44:44.178Z,99.00
2023-02-09T04:47:10.782Z,99.10
2023-02-09T04:49:37.462Z,99.80
2023-02-09T04:52:04.065Z,99.80
2023-02-09T04:54:30.750Z,98.80
2023-02-09T04:56:57.408Z,99.90
2023-02-09T04:59:24.041Z,99.90
2023-02-09T05:01:50.685Z,99.90
2023-02-09T05:04:17.343Z,99.90
2023-02-09T05:06:43.993Z,99.90
2023-02-09T05:09:10.631Z,99.90
2023-02-09T05:11:37.270Z,99.90
2023-02-09T05:14:03.976Z,99.90
2023-02-09T05:16:30.737Z,99.90
2023-02-09T05:18:57.472Z,99.90
2023-02-09T05:21:24.139Z,99.90
2023-02-09T05:23:50.825Z,99.90
2023-02-09T05:26:17.454Z,99.90
2023-02-09T05:28:44.095Z,99.90
2023-02-09T05:31:10.775Z,99.90
2023-02-09T05:33:37.571Z,99.90
2023-02-09T05:36:04.251Z,99.90
2023-02-09T05:38:30.872Z,99.90
2023-02-09T05:40:57.537Z,99.90
2023-02-09T05:43:24.203Z,99.90
2023-02-09T05:45:50.960Z,99.90
2023-02-09T05:48:17.708Z,99.90
2023-02-09T05:50:44.687Z,99.90
2023-02-09T05:53:12.204Z,99.90
2023-02-09T05:55:39.498Z,99.90
2023-02-09T05:58:06.224Z,99.90
2023-02-09T06:00:32.909Z,99.90
2023-02-09T06:02:59.592Z,99.90
2023-02-09T06:05:26.259Z,99.90
2023-02-09T06:08:11.872Z,99.90
2023-02-09T06:10:38.496Z,99.90
2023-02-09T06:13:05.169Z,99.90
2023-02-09T06:15:31.821Z,99.90
2023-02-09T06:17:58.427Z,99.90
2023-02-09T06:20:25.011Z,99.90
2023-02-09T06:22:51.715Z,99.90
2023-02-09T06:25:18.429Z,99.90
2023-02-09T06:27:45.113Z,99.90
2023-02-09T06:30:11.762Z,99.90
2023-02-09T06:32:38.411Z,99.90
2023-02-09T06:35:05.056Z,99.90
2023-02-09T06:37:31.743Z,99.90
2023-02-09T06:39:58.392Z,99.90
2023-02-09T06:42:25.033Z,99.90
2023-02-09T06:44:51.728Z,99.90
2023-02-09T06:47:18.383Z,99.90
2023-02-09T06:49:45.090Z,99.90
2023-02-09T06:52:11.853Z,99.90
2023-02-09T06:54:38.570Z,99.90
2023-02-09T06:57:05.209Z,99.90
2023-02-09T06:59:31.848Z,99.90
2023-02-09T07:01:58.571Z,99.90
2023-02-09T07:04:25.225Z,99.90
2023-02-09T07:06:51.871Z,99.90
2023-02-09T07:09:18.522Z,99.90
2023-02-09T07:11:45.195Z,99.90
2023-02-09T07:14:11.807Z,99.90
2023-02-09T07:16:38.467Z,99.90
2023-02-09T07:19:05.100Z,99.90
2023-02-09T07:21:31.737Z,99.90
2023-02-09T07:23:58.428Z,99.90
2023-02-09T07:26:25.112Z,99.90
2023-02-09T07:28:51.844Z,99.90
2023-02-09T07:31:18.721Z,99.90
2023-02-09T07:33:45.483Z,99.90
2023-02-09T07:36:12.118Z,99.90
2023-02-09T07:38:38.910Z,99.90
2023-02-09T07:41:05.684Z,99.90
2023-02-09T07:43:32.345Z,99.90
2023-02-09T07:45:59.053Z,99.90
2023-02-09T07:48:25.680Z,99.90
2023-02-09T07:50:52.301Z,99.90
2023-02-09T07:53:18.916Z,99.90
2023-02-09T07:55:45.897Z,99.90
2023-02-09T07:58:12.771Z,99.90
2023-02-09T08:00:39.423Z,99.90
2023-02-09T08:03:06.039Z,99.90
2023-02-09T08:05:32.655Z,99.90
2023-02-09T08:07:59.358Z,99.90
2023-02-09T08:10:26.132Z,99.90
2023-02-09T08:12:52.849Z,99.80
2023-02-09T08:15:19.461Z,99.90
2023-02-09T08:17:46.134Z,99.90
2023-02-09T08:20:12.810Z,99.90
2023-02-09T08:22:39.452Z,99.40
2023-02-09T08:25:06.152Z,99.10
2023-02-09T08:27:32.806Z,99.30
2023-02-09T08:29:59.404Z,99.30
2023-02-09T08:32:26.048Z,99.10
2023-02-09T08:34:52.740Z,99.90
2023-02-09T08:37:19.346Z,99.10
2023-02-09T08:39:46.005Z,98.70
2023-02-09T08:42:12.695Z,99.20
2023-02-09T08:44:39.394Z,98.80
2023-02-09T08:47:06.163Z,98.40
2023-02-09T08:49:32.913Z,98.30
2023-02-09T08:51:59.633Z,98.40
2023-02-09T08:54:26.243Z,98.30
2023-02-09T08:56:52.872Z,98.60
2023-02-09T08:59:20.203Z,98.50
2023-02-09T09:01:47.120Z,98.50
2023-02-09T09:04:13.881Z,98.20
2023-02-09T09:06:40.651Z,98.40
2023-02-09T09:09:07.315Z,97.70
2023-02-09T09:11:33.999Z,98.30
2023-02-09T09:14:00.682Z,97.30
2023-02-09T09:16:27.381Z,97.60
2023-02-09T09:18:54.110Z,97.60
2023-02-09T09:21:20.798Z,97.00
2023-02-09T09:23:47.491Z,96.80
2023-02-09T09:26:14.223Z,97.10
2023-02-09T09:28:40.910Z,96.70
2023-02-09T09:31:07.612Z,95.70
2023-02-09T09:33:34.376Z,95.30
2023-02-09T09:36:01.056Z,94.90
2023-02-09T09:38:27.733Z,95.80
2023-02-09T09:40:54.418Z,95.10
2023-02-09T09:43:21.132Z,96.20
2023-02-09T09:45:48.106Z,95.70
2023-02-09T09:48:15.037Z,95.40
2023-02-09T09:50:41.699Z,95.00
2023-02-09T09:53:08.385Z,94.50
2023-02-09T09:55:35.057Z,94.00
2023-02-09T09:58:01.674Z,93.70
2023-02-09T10:00:28.343Z,94.10
2023-02-09T10:02:54.958Z,93.10
2023-02-09T10:05:21.727Z,92.60
2023-02-09T10:07:48.442Z,92.00
2023-02-09T10:10:15.100Z,92.10
2023-02-09T10:12:41.744Z,91.50
2023-02-09T10:15:08.454Z,91.40
2023-02-09T10:17:35.093Z,89.30
2023-02-09T10:20:01.709Z,90.80
2023-02-09T10:22:28.463Z,90.30
2023-02-09T10:24:55.226Z,90.70
2023-02-09T10:27:21.885Z,89.80
2023-02-09T10:29:48.579Z,89.50
2023-02-09T10:32:15.220Z,89.10
2023-02-09T10:34:41.903Z,86.40
2023-02-09T10:37:08.540Z,87.50
2023-02-09T10:39:35.189Z,86.50
2023-02-09T10:42:01.812Z,86.70
2023-02-09T10:44:28.428Z,86.40
2023-02-09T10:46:55.050Z,87.70
2023-02-09T10:49:21.707Z,85.10
2023-02-09T10:51:50.238Z,85.50
2023-02-09T10:54:17.648Z,88.00
2023-02-09T10:56:44.297Z,86.40
2023-02-09T10:59:10.931Z,87.20
2023-02-09T11:01:37.664Z,86.00
2023-02-09T11:04:04.379Z,84.20
2023-02-09T11:06:31.110Z,87.10
2023-02-09T11:08:57.733Z,83.10
2023-02-09T11:11:24.400Z,84.60
2023-02-09T11:13:51.032Z,88.20
2023-02-09T11:16:17.704Z,86.90
2023-02-09T11:18:44.396Z,85.20
2023-02-09T11:21:11.045Z,86.60
2023-02-09T11:23:37.748Z,83.50
2023-02-09T11:26:04.367Z,85.90
2023-02-09T11:28:31.025Z,83.10
2023-02-09T11:30:57.785Z,81.90
2023-02-09T11:33:24.494Z,81.90
2023-02-09T11:35:51.152Z,81.20
2023-02-09T11:38:17.797Z,81.20
2023-02-09T11:40:44.746Z,80.40
2023-02-09T11:43:11.476Z,83.80
2023-02-09T11:45:38.173Z,82.60
2023-02-09T11:48:04.790Z,81.90
2023-02-09T11:50:31.424Z,82.10
2023-02-09T11:52:58.079Z,82.40
2023-02-09T11:55:24.708Z,78.10
2023-02-09T11:57:51.427Z,80.00
2023-02-09T12:00:18.085Z,79.40
2023-02-09T12:02:44.728Z,78.90
2023-02-09T12:05:11.441Z,79.00
2023-02-09T12:07:38.151Z,78.30
2023-02-09T12:10:04.799Z,79.40
2023-02-09T12:12:31.469Z,80.80
2023-02-09T12:14:58.136Z,78.40
2023-02-09T12:17:24.823Z,78.70
2023-02-09T12:19:51.515Z,82.30
2023-02-09T12:22:18.169Z,79.80
2023-02-09T12:24:44.833Z,80.80
2023-02-09T12:27:11.495Z,81.30
2023-02-09T12:29:38.190Z,79.00
2023-02-09T12:32:04.871Z,80.70
2023-02-09T12:34:31.584Z,80.70
2023-02-09T12:36:58.247Z,82.60
2023-02-09T12:39:24.918Z,80.40
2023-02-09T12:41:51.664Z,80.00
2023-02-09T12:44:18.323Z,79.40
2023-02-09T12:46:45.046Z,80.20
2023-02-09T12:49:11.903Z,80.40
2023-02-09T12:51:38.610Z,79.30
2023-02-09T12:54:05.318Z,80.40
2023-02-09T12:56:31.966Z,80.10
2023-02-09T12:58:58.622Z,77.70
2023-02-09T13:01:25.374Z,79.10
2023-02-09T13:03:52.057Z,77.80
2023-02-09T13:06:18.802Z,76.30
2023-02-09T13:08:45.504Z,77.80
2023-02-09T13:11:12.193Z,76.80
2023-02-09T13:13:38.832Z,77.70
2023-02-09T13:16:05.845Z,78.60
2023-02-09T13:18:33.236Z,76.50
2023-02-09T13:20:59.903Z,76.60
2023-02-09T13:23:26.597Z,78.40
2023-02-09T13:25:53.303Z,76.40
2023-02-09T13:28:20.371Z,76.70
2023-02-09T13:30:47.088Z,75.70
2023-02-09T13:33:13.783Z,75.70
2023-02-09T13:35:40.505Z,75.00
2023-02-09T13:38:07.303Z,77.20
2023-02-09T13:40:33.937Z,76.20
2023-02-09T13:45:45.202Z,78.00
2023-02-09T13:48:13.189Z,77.30
2023-02-09T13:50:39.842Z,77.50
2023-02-09T13:53:06.456Z,78.00
2023-02-09T13:55:33.119Z,78.70
2023-02-09T13:57:59.777Z,76.70
2023-02-09T14:00:26.461Z,77.10
2023-02-09T14:02:53.185Z,76.50
2023-02-09T14:05:19.837Z,79.30
2023-02-09T14:07:46.503Z,77.20
2023-02-09T14:10:13.301Z,78.50
2023-02-09T14:12:39.996Z,77.70
2023-02-09T14:15:06.737Z,77.90
2023-02-09T14:17:33.485Z,77.60
2023-02-09T14:20:00.198Z,77.10
2023-02-09T14:22:26.904Z,75.50
2023-02-09T14:24:53.580Z,75.10
2023-02-09T14:27:20.259Z,73.70
2023-02-09T14:29:46.933Z,74.40
2023-02-09T14:32:15.425Z,76.70
2023-02-09T14:34:45.953Z,75.30
2023-02-09T14:37:12.607Z,76.50
2023-02-09T14:39:39.967Z,76.40
2023-02-09T14:42:06.618Z,76.30
2023-02-09T14:44:33.282Z,75.90
2023-02-09T14:46:59.953Z,74.00
2023-02-09T14:49:26.596Z,74.50
2023-02-09T14:51:53.373Z,76.00
2023-02-09T14:54:20.061Z,76.20
2023-02-09T14:56:46.745Z,77.30
2023-02-09T14:59:13.420Z,77.40
2023-02-09T15:01:40.556Z,77.20
2023-02-09T15:04:07.261Z,74.90
2023-02-09T15:06:33.975Z,74.90
2023-02-09T15:09:00.615Z,76.00
2023-02-09T15:11:27.296Z,76.30
2023-02-09T15:13:53.939Z,75.80
2023-02-09T15:16:20.724Z,76.60
2023-02-09T15:18:47.451Z,74.80
2023-02-09T15:21:14.099Z,76.70
2023-02-09T15:23:40.810Z,76.10
2023-02-09T15:26:07.449Z,75.20
2023-02-09T15:28:34.277Z,74.90
2023-02-09T15:31:01.006Z,75.40
2023-02-09T15:33:27.696Z,75.90
2023-02-09T15:35:54.358Z,75.20
2023-02-09T15:38:21.081Z,75.30
2023-02-09T15:40:47.973Z,75.80
2023-02-09T15:43:14.798Z,75.80
2023-02-09T15:45:41.488Z,74.70
2023-02-09T15:48:08.124Z,74.30
2023-02-09T15:50:34.847Z,75.30
2023-02-09T15:53:01.620Z,75.30
2023-02-09T15:55:28.320Z,76.50
2023-02-09T15:57:54.985Z,75.30
2023-02-09T16:00:21.659Z,75.60
2023-02-09T16:02:48.346Z,75.70
2023-02-09T16:05:15.090Z,74.90
2023-02-09T16:07:41.739Z,74.70
2023-02-09T16:10:08.338Z,73.50
2023-02-09T16:12:35.032Z,74.00
2023-02-09T16:15:01.671Z,75.00
2023-02-09T16:17:28.574Z,74.40
2023-02-09T16:19:55.224Z,74.40
2023-02-09T16:22:22.391Z,74.60
2023-02-09T16:24:49.062Z,74.40
2023-02-09T16:27:15.778Z,74.40
2023-02-09T16:29:42.402Z,77.20
2023-02-09T16:32:09.354Z,78.80
2023-02-09T16:34:36.053Z,78.80
2023-02-09T16:37:02.683Z,79.00
2023-02-09T16:39:29.377Z,79.00
2023-02-09T16:41:56.041Z,78.90
2023-02-09T16:44:22.758Z,78.60
2023-02-09T16:46:49.497Z,78.60
2023-02-09T16:49:16.120Z,78.80
2023-02-09T16:51:44.747Z,78.80
2023-02-09T16:54:11.374Z,77.80
2023-02-09T16:56:52.524Z,78.40
2023-02-09T16:59:20.518Z,78.40
2023-02-09T17:01:48.518Z,78.80
2023-02-09T17:04:15.434Z,78.30
2023-02-09T17:06:42.116Z,78.70
2023-02-09T17:09:08.765Z,78.60
2023-02-09T17:11:35.435Z,78.40
2023-02-09T17:14:02.089Z,78.70
2023-02-09T17:16:28.820Z,79.60
2023-02-09T17:18:55.507Z,80.50
2023-02-09T17:21:22.183Z,80.90
2023-02-09T17:23:48.891Z,82.00
2023-02-09T17:26:15.530Z,81.90
2023-02-09T17:28:43.135Z,82.40
2023-02-09T17:31:09.873Z,83.10
2023-02-09T17:33:36.570Z,82.90
2023-02-09T17:38:53.309Z,82.90
2023-02-09T17:41:19.987Z,83.10
2023-02-09T17:43:46.651Z,83.00
2023-02-09T17:46:13.327Z,85.00
2023-02-09T17:48:40.023Z,85.20
2023-02-09T17:51:06.730Z,87.40
2023-02-09T17:53:33.422Z,86.50
2023-02-09T17:56:00.136Z,86.20
2023-02-09T17:58:26.777Z,85.80
2023-02-09T18:00:53.507Z,85.50
2023-02-09T18:03:20.160Z,85.10
2023-02-09T18:05:46.999Z,85.70
2023-02-09T18:08:13.866Z,84.70
2023-02-09T18:10:40.542Z,86.70
2023-02-09T18:13:07.159Z,86.50
2023-02-09T18:15:33.796Z,85.70
2023-02-09T18:18:00.434Z,85.10
2023-02-09T18:20:27.055Z,84.80
2023-02-09T18:22:53.735Z,85.30
2023-02-09T18:25:20.414Z,85.10
2023-02-09T18:27:47.089Z,85.30
2023-02-09T18:30:13.757Z,85.90
2023-02-09T18:32:40.387Z,85.60
2023-02-09T18:35:07.142Z,85.80
2023-02-09T18:37:33.745Z,86.60
2023-02-09T18:40:00.376Z,88.00
2023-02-09T18:42:27.030Z,87.70
2023-02-09T18:44:53.692Z,87.50
2023-02-09T18:47:20.394Z,86.80
2023-02-09T18:49:47.066Z,86.00
2023-02-09T18:52:13.805Z,86.70
2023-02-09T18:54:40.528Z,87.00
2023-02-09T18:57:07.152Z,87.40
2023-02-09T18:59:33.829Z,88.10
2023-02-09T19:02:00.601Z,87.70
2023-02-09T19:04:27.381Z,88.40
2023-02-09T19:06:54.008Z,88.60
2023-02-09T19:09:20.704Z,87.30
2023-02-09T19:11:47.363Z,87.80
2023-02-09T19:14:14.072Z,87.10
2023-02-09T19:16:40.807Z,87.20
2023-02-09T19:19:07.447Z,87.60
2023-02-09T19:21:34.108Z,87.60
2023-02-09T19:24:00.774Z,87.90
2023-02-09T19:26:27.425Z,89.10
2023-02-09T19:28:54.093Z,88.60
2023-02-09T19:31:20.856Z,88.40
2023-02-09T19:33:47.465Z,88.50
2023-02-09T19:36:14.066Z,88.50
2023-02-09T19:38:40.757Z,89.70
2023-02-09T19:41:10.836Z,90.60
2023-02-09T19:43:37.670Z,91.20
2023-02-09T19:46:04.381Z,90.90
2023-02-09T19:48:31.095Z,91.00
2023-02-09T19:50:57.714Z,91.40
2023-02-09T19:53:24.407Z,90.70
2023-02-09T19:55:51.091Z,90.50
2023-02-09T19:58:17.782Z,90.10
2023-02-09T20:00:44.494Z,90.10
2023-02-09T20:03:11.114Z,90.00
2023-02-09T20:05:37.810Z,90.50
2023-02-09T20:08:04.498Z,90.70
2023-02-09T20:10:31.212Z,90.80
2023-02-09T20:12:57.846Z,91.00
2023-02-09T20:15:24.484Z,91.00
2023-02-09T20:17:51.277Z,91.50
2023-02-09T20:20:18.013Z,91.20
2023-02-09T20:22:44.770Z,91.10
2023-02-09T20:25:11.486Z,90.90
2023-02-09T20:27:38.243Z,90.40
2023-02-09T20:30:04.970Z,90.70
2023-02-09T20:32:31.678Z,91.10
2023-02-09T20:34:58.409Z,91.20
2023-02-09T20:37:25.091Z,90.90
2023-02-09T20:39:51.745Z,91.00
2023-02-09T20:42:18.479Z,91.20
2023-02-09T20:44:45.166Z,91.50
2023-02-09T20:47:11.905Z,91.50
2023-02-09T20:49:38.531Z,92.30
2023-02-09T20:52:05.188Z,92.40
2023-02-09T20:54:31.912Z,92.10
2023-02-09T20:56:58.593Z,91.80
2023-02-09T20:59:25.226Z,91.80
2023-02-09T21:01:51.829Z,91.50
2023-02-09T21:04:18.519Z,91.50
2023-02-09T21:06:45.273Z,91.70
2023-02-09T21:09:12.006Z,91.50
2023-02-09T21:11:38.672Z,91.20
2023-02-09T21:14:05.356Z,90.90
2023-02-09T21:16:32.055Z,91.40
2023-02-09T21:19:00.518Z,91.50
2023-02-09T21:21:27.146Z,91.30
2023-02-09T21:23:53.841Z,91.10
2023-02-09T21:26:20.492Z,91.60
2023-02-09T21:28:47.143Z,91.90
2023-02-09T21:31:13.794Z,91.60
2023-02-09T21:33:40.504Z,91.40
2023-02-09T21:36:07.175Z,91.80
2023-02-09T21:38:33.800Z,91.20
2023-02-09T21:41:00.540Z,92.30
2023-02-09T21:43:27.204Z,92.90
2023-02-09T21:45:53.913Z,92.80
2023-02-09T21:48:20.538Z,92.60
2023-02-09T21:50:47.149Z,92.40
2023-02-09T21:53:13.845Z,92.10
2023-02-09T21:55:40.527Z,92.00
2023-02-09T21:58:07.249Z,92.30
2023-02-09T22:00:33.939Z,93.30
2023-02-09T22:03:00.571Z,93.50
2023-02-09T22:05:27.219Z,93.10
2023-02-09T22:07:53.813Z,92.60
2023-02-09T22:10:20.481Z,92.80
2023-02-09T22:12:47.170Z,92.70
2023-02-09T22:15:13.829Z,92.50
2023-02-09T22:17:40.465Z,92.20
2023-02-09T22:20:07.171Z,93.00
2023-02-09T22:22:33.768Z,92.50
2023-02-09T22:25:00.435Z,92.60
2023-02-09T22:27:27.058Z,92.70
2023-02-09T22:29:53.797Z,92.60
2023-02-09T22:32:20.424Z,92.30
2023-02-09T22:34:47.102Z,92.40
2023-02-09T22:37:13.755Z,92.30
2023-02-09T22:39:40.482Z,91.80
2023-02-09T22:42:07.168Z,92.70
2023-02-09T22:44:33.836Z,94.40
2023-02-09T22:47:00.454Z,94.20
2023-02-09T22:49:27.146Z,93.80
2023-02-09T22:51:53.765Z,93.20
2023-02-09T22:54:20.383Z,93.20
2023-02-09T22:56:47.073Z,93.60
2023-02-09T22:59:13.663Z,93.90
2023-02-09T23:01:40.423Z,93.80
2023-02-09T23:04:07.236Z,93.60
2023-02-09T23:06:34.104Z,93.40
2023-02-09T23:09:00.716Z,93.30
2023-02-09T23:11:27.371Z,93.20
2023-02-09T23:14:08.589Z,93.10
2023-02-09T23:16:36.542Z,93.10
2023-02-09T23:19:03.305Z,93.00
2023-02-09T23:21:29.937Z,92.90
2023-02-09T23:23:56.641Z,93.00
2023-02-09T23:26:23.329Z,93.30
2023-02-09T23:28:50.071Z,92.90
2023-02-09T23:31:16.779Z,93.60
2023-02-09T23:33:43.454Z,93.90
2023-02-09T23:36:10.140Z,93.90
2023-02-09T23:38:36.809Z,93.40
2023-02-09T23:41:03.489Z,93.60
2023-02-09T23:43:30.137Z,93.40
2023-02-09T23:45:56.841Z,93.60
2023-02-09T23:48:23.516Z,93.70
2023-02-09T23:50:50.225Z,93.80
2023-02-09T23:53:16.869Z,93.70
2023-02-09T23:55:43.535Z,93.70
2023-02-09T23:58:10.207Z,93.70
